sensor_id;sensor_type;location;lat;lon;timestamp;pressure;altitude;pressure_sealevel;temperature;humidity
33422;BME280;19763;55.798;37.782;2022-09-13T10:41:30;99428.31;;;14.71;51.83
33422;BME280;19763;55.798;37.782;2022-09-13T10:43:58;99424.94;;;14.69;51.69
33422;BME280;19763;55.798;37.782;2022-09-13T10:46:26;99407.91;;;14.60;52.33
33422;BME280;19763;55.798;37.782;2022-09-13T10:48:53;99416.06;;;14.73;51.91
33422;BME280;19763;55.798;37.782;2022-09-13T10:56:31;99412.44;;;14.77;51.84
33422;BME280;19763;55.798;37.782;2022-09-13T10:59:20;99406.09;;;14.82;52.22
33422;BME280;19763;55.798;37.782;2022-09-13T11:04:37;99387.88;;;14.60;51.84
33422;BME280;19763;55.798;37.782;2022-09-13T11:10:15;99408.25;;;14.73;52.55
33422;BME280;19763;55.798;37.782;2022-09-13T11:15:33;99391.22;;;14.84;52.86
33422;BME280;19763;55.798;37.782;2022-09-13T11:29:45;99379.53;;;14.52;53.05
33422;BME280;19763;55.798;37.782;2022-09-13T11:38:53;99376.31;;;14.67;51.93
33422;BME280;19763;55.798;37.782;2022-09-13T11:41:04;99364.25;;;14.65;52.78
33422;BME280;19763;55.798;37.782;2022-09-13T11:46:28;99365.72;;;14.72;52.12
33422;BME280;19763;55.798;37.782;2022-09-13T11:49:26;99361.34;;;14.73;52.63
33422;BME280;19763;55.798;37.782;2022-09-13T11:52:02;99362.59;;;14.64;52.26
33422;BME280;19763;55.798;37.782;2022-09-13T11:57:26;99353.88;;;14.84;51.42
33422;BME280;19763;55.798;37.782;2022-09-13T11:59:58;99366.00;;;14.85;52.21
33422;BME280;19763;55.798;37.782;2022-09-13T12:02:48;99342.34;;;14.69;52.22
33422;BME280;19763;55.798;37.782;2022-09-13T12:05:18;99356.94;;;14.73;52.24
33422;BME280;19763;55.798;37.782;2022-09-13T12:10:29;99363.78;;;14.76;51.94
33422;BME280;19763;55.798;37.782;2022-09-13T12:12:57;99359.00;;;14.66;51.78
33422;BME280;19763;55.798;37.782;2022-09-13T12:15:45;99354.69;;;14.65;52.20
33422;BME280;19763;55.798;37.782;2022-09-13T12:18:30;99355.84;;;14.79;52.05
33422;BME280;19763;55.798;37.782;2022-09-13T12:21:12;99341.44;;;14.70;52.61
33422;BME280;19763;55.798;37.782;2022-09-13T12:23:50;99349.34;;;14.69;51.50
33422;BME280;19763;55.798;37.782;2022-09-13T12:26:20;99345.19;;;14.64;52.31
33422;BME280;19763;55.798;37.782;2022-09-13T12:28:52;99354.28;;;14.75;51.75
33422;BME280;19763;55.798;37.782;2022-09-13T12:31:25;99338.53;;;14.78;51.89
33422;BME280;19763;55.798;37.782;2022-09-13T12:33:51;99342.69;;;14.61;52.08
33422;BME280;19763;55.798;37.782;2022-09-13T12:36:24;99346.75;;;14.69;52.68
33422;BME280;19763;55.798;37.782;2022-09-13T12:52:43;99294.19;;;14.57;51.15
33422;BME280;19763;55.798;37.782;2022-09-13T12:55:27;99306.31;;;14.79;51.41
33422;BME280;19763;55.798;37.782;2022-09-13T12:58:39;99308.66;;;14.85;51.04
33422;BME280;19763;55.798;37.782;2022-09-13T13:03:47;99273.00;;;14.66;50.99
33422;BME280;19763;55.798;37.782;2022-09-13T13:09:06;99264.34;;;14.45;50.72
33422;BME280;19763;55.798;37.782;2022-09-13T13:11:47;99300.88;;;14.64;50.49
33422;BME280;19763;55.798;37.782;2022-09-13T13:15:00;99283.53;;;14.63;51.30
33422;BME280;19763;55.798;37.782;2022-09-13T13:17:42;99302.06;;;14.76;50.28
33422;BME280;19763;55.798;37.782;2022-09-13T13:21:02;99298.19;;;14.66;50.64
33422;BME280;19763;55.798;37.782;2022-09-13T13:32:04;99286.03;;;14.66;50.72
33422;BME280;19763;55.798;37.782;2022-09-13T13:34:48;99266.06;;;14.65;49.50
33422;BME280;19763;55.798;37.782;2022-09-13T13:39:46;99274.19;;;14.58;49.97
33422;BME280;19763;55.798;37.782;2022-09-13T13:49:48;99260.72;;;14.69;50.67
33422;BME280;19763;55.798;37.782;2022-09-13T13:57:31;99250.03;;;14.54;51.15
33422;BME280;19763;55.798;37.782;2022-09-13T14:00:19;99250.81;;;14.56;50.95
33422;BME280;19763;55.798;37.782;2022-09-13T14:11:10;99246.97;;;14.65;51.52
33422;BME280;19763;55.798;37.782;2022-09-13T14:13:45;99241.44;;;14.52;51.35
33422;BME280;19763;55.798;37.782;2022-09-13T14:16:37;99238.50;;;14.60;51.47
33422;BME280;19763;55.798;37.782;2022-09-13T14:24:39;99233.75;;;14.49;51.69
33422;BME280;19763;55.798;37.782;2022-09-13T14:27:16;99242.75;;;14.62;51.93
33422;BME280;19763;55.798;37.782;2022-09-13T14:29:45;99256.16;;;14.53;51.28
33422;BME280;19763;55.798;37.782;2022-09-13T14:32:16;99262.94;;;14.57;51.30
33422;BME280;19763;55.798;37.782;2022-09-13T14:37:50;99259.28;;;14.61;51.06
33422;BME280;19763;55.798;37.782;2022-09-13T14:40:22;99249.53;;;14.46;51.10
33422;BME280;19763;55.798;37.782;2022-09-13T14:42:49;99253.19;;;14.42;51.16
33422;BME280;19763;55.798;37.782;2022-09-13T14:45:20;99244.31;;;14.27;51.79
33422;BME280;19763;55.798;37.782;2022-09-13T14:50:22;99239.78;;;14.30;52.08
33422;BME280;19763;55.798;37.782;2022-09-13T14:52:53;99242.75;;;14.42;51.74
33422;BME280;19763;55.798;37.782;2022-09-13T14:55:35;99240.13;;;14.23;52.27
33422;BME280;19763;55.798;37.782;2022-09-13T14:58:05;99243.94;;;14.35;52.62
33422;BME280;19763;55.798;37.782;2022-09-13T15:00:44;99245.22;;;14.26;52.26
33422;BME280;19763;55.798;37.782;2022-09-13T15:03:14;99240.72;;;14.29;51.90
33422;BME280;19763;55.798;37.782;2022-09-13T15:05:40;99236.94;;;14.37;51.60
33422;BME280;19763;55.798;37.782;2022-09-13T15:08:45;99242.00;;;14.40;52.25
33422;BME280;19763;55.798;37.782;2022-09-13T15:11:26;99230.16;;;14.32;52.27
33422;BME280;19763;55.798;37.782;2022-09-13T15:16:50;99237.97;;;14.32;52.71
33422;BME280;19763;55.798;37.782;2022-09-13T15:21:48;99219.81;;;14.31;52.59
33422;BME280;19763;55.798;37.782;2022-09-13T15:24:20;99225.09;;;14.29;52.17
33422;BME280;19763;55.798;37.782;2022-09-13T15:26:46;99223.53;;;14.25;53.30
33422;BME280;19763;55.798;37.782;2022-09-13T15:29:17;99228.25;;;14.36;53.48
33422;BME280;19763;55.798;37.782;2022-09-13T15:31:43;99232.47;;;14.39;52.59
33422;BME280;19763;55.798;37.782;2022-09-13T15:34:21;99223.03;;;14.36;53.44
33422;BME280;19763;55.798;37.782;2022-09-13T15:37:01;99221.00;;;14.24;53.56
33422;BME280;19763;55.798;37.782;2022-09-13T15:39:27;99222.97;;;14.38;52.67
33422;BME280;19763;55.798;37.782;2022-09-13T15:41:58;99210.59;;;14.24;52.87
33422;BME280;19763;55.798;37.782;2022-09-13T15:44:25;99219.09;;;14.27;52.61
33422;BME280;19763;55.798;37.782;2022-09-13T15:46:58;99224.53;;;14.42;53.06
33422;BME280;19763;55.798;37.782;2022-09-13T15:49:26;99220.72;;;14.30;53.76
33422;BME280;19763;55.798;37.782;2022-09-13T15:51:55;99225.31;;;14.44;53.32
33422;BME280;19763;55.798;37.782;2022-09-13T15:54:22;99221.03;;;14.22;53.20
33422;BME280;19763;55.798;37.782;2022-09-13T15:56:48;99221.69;;;14.27;52.89
33422;BME280;19763;55.798;37.782;2022-09-13T15:59:21;99189.06;;;14.00;53.63
33422;BME280;19763;55.798;37.782;2022-09-13T16:01:48;99208.38;;;14.14;53.74
33422;BME280;19763;55.798;37.782;2022-09-13T16:04:14;99207.31;;;14.19;53.00
33422;BME280;19763;55.798;37.782;2022-09-13T16:06:40;99199.16;;;14.26;53.96
33422;BME280;19763;55.798;37.782;2022-09-13T16:09:21;99204.19;;;14.10;53.93
33422;BME280;19763;55.798;37.782;2022-09-13T16:11:48;99204.78;;;14.17;53.98
33422;BME280;19763;55.798;37.782;2022-09-13T16:14:15;99198.16;;;14.10;54.13
33422;BME280;19763;55.798;37.782;2022-09-13T16:16:41;99204.78;;;14.17;54.44
33422;BME280;19763;55.798;37.782;2022-09-13T16:19:18;99201.28;;;14.18;54.33
33422;BME280;19763;55.798;37.782;2022-09-13T16:21:45;99203.59;;;14.24;55.13
33422;BME280;19763;55.798;37.782;2022-09-13T16:24:11;99201.94;;;14.03;55.48
33422;BME280;19763;55.798;37.782;2022-09-13T16:26:37;99200.56;;;14.14;56.10
33422;BME280;19763;55.798;37.782;2022-09-13T16:29:03;99202.88;;;14.21;56.10
33422;BME280;19763;55.798;37.782;2022-09-13T16:31:29;99196.59;;;14.06;56.42
33422;BME280;19763;55.798;37.782;2022-09-13T16:33:54;99198.63;;;13.99;57.81
33422;BME280;19763;55.798;37.782;2022-09-13T16:36:20;99191.66;;;14.00;57.97
33422;BME280;19763;55.798;37.782;2022-09-13T16:38:46;99193.03;;;13.88;58.28
33422;BME280;19763;55.798;37.782;2022-09-13T16:41:12;99201.88;;;13.84;59.66
33422;BME280;19763;55.798;37.782;2022-09-13T16:43:38;99199.88;;;13.70;60.53
33422;BME280;19763;55.798;37.782;2022-09-13T16:46:08;99191.28;;;13.68;60.67
33422;BME280;19763;55.798;37.782;2022-09-13T16:48:35;99193.81;;;13.69;60.98
33422;BME280;19763;55.798;37.782;2022-09-13T16:51:03;99185.09;;;13.70;60.76
33422;BME280;19763;55.798;37.782;2022-09-13T16:53:37;99197.28;;;13.70;60.77
33422;BME280;19763;55.798;37.782;2022-09-13T16:56:07;99192.66;;;13.56;60.53
33422;BME280;19763;55.798;37.782;2022-09-13T16:58:38;99197.31;;;13.48;61.09
33422;BME280;19763;55.798;37.782;2022-09-13T17:01:05;99196.41;;;13.49;61.32
33422;BME280;19763;55.798;37.782;2022-09-13T17:03:31;99195.31;;;13.54;61.54
33422;BME280;19763;55.798;37.782;2022-09-13T17:06:04;99192.56;;;13.37;61.47
33422;BME280;19763;55.798;37.782;2022-09-13T17:08:30;99188.97;;;13.39;60.84
33422;BME280;19763;55.798;37.782;2022-09-13T17:10:57;99183.81;;;13.60;62.14
33422;BME280;19763;55.798;37.782;2022-09-13T17:13:23;99185.28;;;13.45;61.94
33422;BME280;19763;55.798;37.782;2022-09-13T17:15:49;99176.19;;;13.55;62.60
33422;BME280;19763;55.798;37.782;2022-09-13T17:18:15;99176.69;;;13.43;62.36
33422;BME280;19763;55.798;37.782;2022-09-13T17:20:46;99171.63;;;13.40;62.43
33422;BME280;19763;55.798;37.782;2022-09-13T17:23:13;99177.03;;;13.56;61.83
33422;BME280;19763;55.798;37.782;2022-09-13T17:25:40;99165.06;;;13.52;62.27
33422;BME280;19763;55.798;37.782;2022-09-13T17:28:10;99157.13;;;13.55;61.21
33422;BME280;19763;55.798;37.782;2022-09-13T17:30:36;99153.69;;;13.32;61.25
33422;BME280;19763;55.798;37.782;2022-09-13T17:33:02;99150.88;;;13.38;62.61
33422;BME280;19763;55.798;37.782;2022-09-13T17:35:31;99156.53;;;13.48;62.22
33422;BME280;19763;55.798;37.782;2022-09-13T17:37:58;99155.97;;;13.41;63.06
33422;BME280;19763;55.798;37.782;2022-09-13T17:40:25;99150.69;;;13.43;63.44
33422;BME280;19763;55.798;37.782;2022-09-13T17:42:51;99139.59;;;13.17;63.93
33422;BME280;19763;55.798;37.782;2022-09-13T17:45:17;99142.25;;;13.16;64.08
33422;BME280;19763;55.798;37.782;2022-09-13T17:47:43;99135.69;;;13.27;63.58
33422;BME280;19763;55.798;37.782;2022-09-13T17:50:09;99139.69;;;13.36;63.75
33422;BME280;19763;55.798;37.782;2022-09-13T17:52:35;99125.84;;;13.13;63.85
33422;BME280;19763;55.798;37.782;2022-09-13T17:55:01;99127.75;;;13.10;65.12
33422;BME280;19763;55.798;37.782;2022-09-13T17:57:28;99109.13;;;12.99;64.74
33422;BME280;19763;55.798;37.782;2022-09-13T17:59:54;99126.03;;;13.09;66.19
33422;BME280;19763;55.798;37.782;2022-09-13T18:02:20;99120.56;;;12.94;65.49
33422;BME280;19763;55.798;37.782;2022-09-13T18:04:47;99122.44;;;12.91;66.66
33422;BME280;19763;55.798;37.782;2022-09-13T18:07:16;99119.00;;;12.90;67.45
33422;BME280;19763;55.798;37.782;2022-09-13T18:09:41;99121.09;;;13.03;67.32
33422;BME280;19763;55.798;37.782;2022-09-13T18:12:08;99114.59;;;12.70;68.23
33422;BME280;19763;55.798;37.782;2022-09-13T18:14:34;99107.28;;;12.80;68.75
33422;BME280;19763;55.798;37.782;2022-09-13T18:16:59;99114.16;;;12.81;70.00
33422;BME280;19763;55.798;37.782;2022-09-13T18:19:25;99101.13;;;12.83;69.49
33422;BME280;19763;55.798;37.782;2022-09-13T18:21:52;99108.22;;;12.55;69.78
33422;BME280;19763;55.798;37.782;2022-09-13T18:24:18;99114.50;;;12.50;70.58
33422;BME280;19763;55.798;37.782;2022-09-13T18:26:44;99106.56;;;12.54;71.08
33422;BME280;19763;55.798;37.782;2022-09-13T18:29:12;99098.34;;;12.43;72.84
33422;BME280;19763;55.798;37.782;2022-09-13T18:31:39;99100.44;;;12.33;72.74
33422;BME280;19763;55.798;37.782;2022-09-13T18:34:08;99097.03;;;12.31;73.26
33422;BME280;19763;55.798;37.782;2022-09-13T18:36:35;99092.31;;;12.19;73.95
33422;BME280;19763;55.798;37.782;2022-09-13T18:39:02;99093.28;;;12.16;74.00
33422;BME280;19763;55.798;37.782;2022-09-13T18:41:37;99081.00;;;12.21;73.57
33422;BME280;19763;55.798;37.782;2022-09-13T18:44:05;99092.81;;;12.29;73.96
33422;BME280;19763;55.798;37.782;2022-09-13T18:46:33;99077.34;;;12.25;74.65
33422;BME280;19763;55.798;37.782;2022-09-13T18:48:59;99078.53;;;12.17;75.82
33422;BME280;19763;55.798;37.782;2022-09-13T18:51:41;99066.09;;;12.03;76.13
33422;BME280;19763;55.798;37.782;2022-09-13T18:54:11;99066.03;;;12.04;76.87
33422;BME280;19763;55.798;37.782;2022-09-13T18:56:37;99062.75;;;11.99;77.10
33422;BME280;19763;55.798;37.782;2022-09-13T18:59:04;99062.81;;;11.98;77.20
33422;BME280;19763;55.798;37.782;2022-09-13T19:01:32;99060.44;;;11.91;78.06
33422;BME280;19763;55.798;37.782;2022-09-13T19:04:01;99043.88;;;11.96;78.28
33422;BME280;19763;55.798;37.782;2022-09-13T19:06:32;99051.50;;;12.00;78.91
33422;BME280;19763;55.798;37.782;2022-09-13T19:08:59;99037.28;;;11.85;79.20
33422;BME280;19763;55.798;37.782;2022-09-13T19:11:27;99025.56;;;11.75;78.95
33422;BME280;19763;55.798;37.782;2022-09-13T19:13:56;99040.00;;;11.82;79.85
33422;BME280;19763;55.798;37.782;2022-09-13T19:16:21;99022.19;;;11.73;79.27
33422;BME280;19763;55.798;37.782;2022-09-13T19:18:48;99008.47;;;11.69;80.21
33422;BME280;19763;55.798;37.782;2022-09-13T19:21:21;99025.56;;;11.75;79.98
33422;BME280;19763;55.798;37.782;2022-09-13T19:23:48;99017.50;;;11.59;80.16
33422;BME280;19763;55.798;37.782;2022-09-13T19:26:20;99002.59;;;11.64;79.76
33422;BME280;19763;55.798;37.782;2022-09-13T19:28:51;99010.00;;;11.75;79.87
33422;BME280;19763;55.798;37.782;2022-09-13T19:31:20;98993.81;;;11.68;80.06
33422;BME280;19763;55.798;37.782;2022-09-13T19:33:46;98994.88;;;11.63;79.98
33422;BME280;19763;55.798;37.782;2022-09-13T19:36:20;98983.44;;;11.68;80.16
33422;BME280;19763;55.798;37.782;2022-09-13T19:38:48;98972.69;;;11.55;79.06
33422;BME280;19763;55.798;37.782;2022-09-13T19:41:15;98979.44;;;11.60;81.08
33422;BME280;19763;55.798;37.782;2022-09-13T19:43:43;98986.09;;;11.67;79.12
33422;BME280;19763;55.798;37.782;2022-09-13T19:46:16;98968.50;;;11.51;79.23
33422;BME280;19763;55.798;37.782;2022-09-13T19:48:48;98972.75;;;11.54;79.33
33422;BME280;19763;55.798;37.782;2022-09-13T19:51:18;98968.34;;;11.56;80.07
33422;BME280;19763;55.798;37.782;2022-09-13T19:53:45;98967.88;;;11.68;78.85
33422;BME280;19763;55.798;37.782;2022-09-13T19:56:13;98969.00;;;11.61;79.51
33422;BME280;19763;55.798;37.782;2022-09-13T19:58:40;98963.88;;;11.60;78.93
33422;BME280;19763;55.798;37.782;2022-09-13T20:01:10;98968.69;;;11.70;78.98
33422;BME280;19763;55.798;37.782;2022-09-13T20:03:36;98966.22;;;11.67;78.70
33422;BME280;19763;55.798;37.782;2022-09-13T20:06:05;98962.44;;;11.52;79.61
33422;BME280;19763;55.798;37.782;2022-09-13T20:08:32;98949.34;;;11.55;79.43
33422;BME280;19763;55.798;37.782;2022-09-13T20:11:06;98954.59;;;11.54;79.04
33422;BME280;19763;55.798;37.782;2022-09-13T20:13:32;98939.91;;;11.54;79.08
33422;BME280;19763;55.798;37.782;2022-09-13T20:15:58;98941.47;;;11.81;79.03
33422;BME280;19763;55.798;37.782;2022-09-13T20:18:24;98921.38;;;11.64;78.30
33422;BME280;19763;55.798;37.782;2022-09-13T20:20:50;98931.94;;;11.59;78.84
33422;BME280;19763;55.798;37.782;2022-09-13T20:23:21;98919.69;;;11.63;78.84
33422;BME280;19763;55.798;37.782;2022-09-13T20:25:48;98918.50;;;11.71;78.56
33422;BME280;19763;55.798;37.782;2022-09-13T20:28:15;98920.88;;;11.54;78.75
33422;BME280;19763;55.798;37.782;2022-09-13T20:30:40;98908.59;;;11.59;78.85
33422;BME280;19763;55.798;37.782;2022-09-13T20:33:06;98915.94;;;11.70;77.96
33422;BME280;19763;55.798;37.782;2022-09-13T20:35:37;98919.53;;;11.67;78.99
33422;BME280;19763;55.798;37.782;2022-09-13T20:38:04;98905.53;;;11.71;78.53
33422;BME280;19763;55.798;37.782;2022-09-13T20:40:31;98902.91;;;11.49;78.90
33422;BME280;19763;55.798;37.782;2022-09-13T20:42:56;98909.31;;;11.63;78.81
33422;BME280;19763;55.798;37.782;2022-09-13T20:45:22;98905.31;;;11.54;79.29
33422;BME280;19763;55.798;37.782;2022-09-13T20:47:47;98886.69;;;11.66;78.73
33422;BME280;19763;55.798;37.782;2022-09-13T20:50:13;98891.41;;;11.79;78.22
33422;BME280;19763;55.798;37.782;2022-09-13T20:52:39;98891.22;;;11.83;78.68
33422;BME280;19763;55.798;37.782;2022-09-13T20:55:06;98884.03;;;11.68;78.82
33422;BME280;19763;55.798;37.782;2022-09-13T20:57:32;98886.56;;;11.69;78.84
33422;BME280;19763;55.798;37.782;2022-09-13T20:59:58;98887.97;;;11.78;79.23
33422;BME280;19763;55.798;37.782;2022-09-13T21:02:24;98878.31;;;11.82;78.61
33422;BME280;19763;55.798;37.782;2022-09-13T21:04:50;98880.25;;;11.77;79.42
33422;BME280;19763;55.798;37.782;2022-09-13T21:07:15;98881.84;;;11.57;80.14
33422;BME280;19763;55.798;37.782;2022-09-13T21:10:00;98877.66;;;11.54;81.19
33422;BME280;19763;55.798;37.782;2022-09-13T21:12:26;98870.28;;;11.44;80.70
33422;BME280;19763;55.798;37.782;2022-09-13T21:14:52;98874.63;;;11.43;81.32
33422;BME280;19763;55.798;37.782;2022-09-13T21:17:18;98872.13;;;11.40;81.11
33422;BME280;19763;55.798;37.782;2022-09-13T21:19:44;98861.34;;;11.51;80.83
33422;BME280;19763;55.798;37.782;2022-09-13T21:22:10;98842.84;;;11.38;81.36
33422;BME280;19763;55.798;37.782;2022-09-13T21:24:36;98842.25;;;11.53;81.67
33422;BME280;19763;55.798;37.782;2022-09-13T21:27:06;98839.53;;;11.34;81.71
33422;BME280;19763;55.798;37.782;2022-09-13T21:29:56;98847.00;;;11.42;81.88
33422;BME280;19763;55.798;37.782;2022-09-13T21:32:22;98855.22;;;11.53;81.89
33422;BME280;19763;55.798;37.782;2022-09-13T21:34:47;98854.97;;;11.60;81.83
33422;BME280;19763;55.798;37.782;2022-09-13T21:37:13;98848.56;;;11.46;82.30
33422;BME280;19763;55.798;37.782;2022-09-13T21:39:39;98844.28;;;11.45;82.05
33422;BME280;19763;55.798;37.782;2022-09-13T21:42:04;98836.63;;;11.42;81.97
33422;BME280;19763;55.798;37.782;2022-09-13T21:44:30;98824.81;;;11.35;82.09
33422;BME280;19763;55.798;37.782;2022-09-13T21:46:55;98816.78;;;11.41;82.67
33422;BME280;19763;55.798;37.782;2022-09-13T21:49:21;98822.41;;;11.52;82.07
33422;BME280;19763;55.798;37.782;2022-09-13T21:51:47;98830.56;;;11.43;82.75
33422;BME280;19763;55.798;37.782;2022-09-13T21:54:16;98831.75;;;11.56;82.86
33422;BME280;19763;55.798;37.782;2022-09-13T21:56:47;98815.06;;;11.42;83.00
33422;BME280;19763;55.798;37.782;2022-09-13T21:59:15;98823.53;;;11.23;84.20
33422;BME280;19763;55.798;37.782;2022-09-13T22:01:43;98814.59;;;11.08;84.71
33422;BME280;19763;55.798;37.782;2022-09-13T22:04:13;98807.81;;;11.28;84.44
33422;BME280;19763;55.798;37.782;2022-09-13T22:06:42;98829.56;;;11.46;84.16
33422;BME280;19763;55.798;37.782;2022-09-13T22:09:07;98828.47;;;11.29;85.12
33422;BME280;19763;55.798;37.782;2022-09-13T22:11:38;98828.03;;;11.18;85.50
33422;BME280;19763;55.798;37.782;2022-09-13T22:14:05;98822.34;;;11.08;86.33
33422;BME280;19763;55.798;37.782;2022-09-13T22:16:34;98798.09;;;10.87;86.85
33422;BME280;19763;55.798;37.782;2022-09-13T22:19:18;98812.38;;;11.21;86.15
33422;BME280;19763;55.798;37.782;2022-09-13T22:21:46;98803.88;;;11.17;86.31
33422;BME280;19763;55.798;37.782;2022-09-13T22:24:15;98812.50;;;11.18;87.07
33422;BME280;19763;55.798;37.782;2022-09-13T22:26:41;98811.97;;;11.32;85.67
33422;BME280;19763;55.798;37.782;2022-09-13T22:29:08;98775.91;;;11.03;86.30
33422;BME280;19763;55.798;37.782;2022-09-13T22:31:37;98797.66;;;11.21;86.25
33422;BME280;19763;55.798;37.782;2022-09-13T22:34:04;98784.81;;;11.18;86.16
33422;BME280;19763;55.798;37.782;2022-09-13T22:36:30;98787.59;;;11.14;86.12
33422;BME280;19763;55.798;37.782;2022-09-13T22:38:56;98790.25;;;11.12;86.65
33422;BME280;19763;55.798;37.782;2022-09-13T22:41:24;98767.81;;;11.11;86.42
33422;BME280;19763;55.798;37.782;2022-09-13T22:43:50;98783.25;;;11.14;87.27
33422;BME280;19763;55.798;37.782;2022-09-13T22:46:25;98772.13;;;11.12;87.62
33422;BME280;19763;55.798;37.782;2022-09-13T22:48:52;98766.56;;;11.21;87.03
33422;BME280;19763;55.798;37.782;2022-09-13T22:51:18;98762.88;;;11.05;87.86
33422;BME280;19763;55.798;37.782;2022-09-13T22:53:46;98763.78;;;11.04;87.97
33422;BME280;19763;55.798;37.782;2022-09-13T22:56:14;98774.69;;;11.12;88.47
33422;BME280;19763;55.798;37.782;2022-09-13T22:58:41;98763.91;;;11.01;90.17
33422;BME280;19763;55.798;37.782;2022-09-13T23:01:09;98759.22;;;11.11;89.24
33422;BME280;19763;55.798;37.782;2022-09-13T23:03:37;98759.09;;;10.92;90.30
33422;BME280;19763;55.798;37.782;2022-09-13T23:06:04;98752.59;;;11.03;90.38
33422;BME280;19763;55.798;37.782;2022-09-13T23:08:31;98741.16;;;10.85;90.92
33422;BME280;19763;55.798;37.782;2022-09-13T23:11:16;98754.88;;;10.89;91.13
33422;BME280;19763;55.798;37.782;2022-09-13T23:13:44;98746.53;;;11.03;91.01
33422;BME280;19763;55.798;37.782;2022-09-13T23:16:14;98739.69;;;11.02;90.29
33422;BME280;19763;55.798;37.782;2022-09-13T23:18:40;98741.66;;;10.95;91.35
33422;BME280;19763;55.798;37.782;2022-09-13T23:21:06;98728.16;;;10.87;90.97
33422;BME280;19763;55.798;37.782;2022-09-13T23:23:32;98730.97;;;11.04;90.80
33422;BME280;19763;55.798;37.782;2022-09-13T23:26:05;98721.50;;;11.03;90.75
33422;BME280;19763;55.798;37.782;2022-09-13T23:28:31;98721.19;;;10.89;91.67
33422;BME280;19763;55.798;37.782;2022-09-13T23:31:15;98645.63;;;10.32;91.36
33422;BME280;19763;55.798;37.782;2022-09-13T23:33:44;98723.53;;;10.73;92.67
33422;BME280;19763;55.798;37.782;2022-09-13T23:36:12;98720.88;;;10.75;92.42
33422;BME280;19763;55.798;37.782;2022-09-13T23:38:39;98711.28;;;10.77;93.08
33422;BME280;19763;55.798;37.782;2022-09-13T23:41:08;98712.69;;;10.85;92.32
33422;BME280;19763;55.798;37.782;2022-09-13T23:43:34;98699.91;;;10.81;92.76
33422;BME280;19763;55.798;37.782;2022-09-13T23:46:00;98704.97;;;10.84;92.97
33422;BME280;19763;55.798;37.782;2022-09-13T23:48:26;98715.06;;;10.92;92.29
33422;BME280;19763;55.798;37.782;2022-09-13T23:51:04;98708.75;;;10.97;91.91
33422;BME280;19763;55.798;37.782;2022-09-13T23:53:35;98694.53;;;10.85;92.23
33422;BME280;19763;55.798;37.782;2022-09-13T23:56:01;98697.81;;;10.91;92.43
33422;BME280;19763;55.798;37.782;2022-09-13T23:58:28;98689.75;;;10.76;93.30
